Time;durP1;ratioP1;P1;durP2;ratioP2;P2;SDS_P1;SDS_P2;PMS_P1;PMS_P2;Temp;Humidity;BMP_temperature;BMP_pressure;BME280_temperature;BME280_humidity;BME280_pressure;Samples;Min_cycle;Max_cycle;Signal;HPM_P1;HPM_P2
2023/02/26 00:01:40;;;;;;;5.30;2.72;;;;;;;3.60;96.59;102021.19;4960578;28;20046;-80
2023/02/26 00:04:06;;;;;;;4.88;2.70;;;;;;;3.62;96.20;102029.91;4960856;28;20042;-79
2023/02/26 00:06:35;;;;;;;6.65;3.22;;;;;;;3.64;96.16;102030.69;4960791;28;20380;-78
2023/02/26 00:09:05;;;;;;;6.78;2.95;;;;;;;3.63;96.92;102037.81;4960395;28;20377;-79
2023/02/26 00:11:32;;;;;;;2.70;2.05;;;;;;;3.64;96.19;102023.53;4977070;28;20058;-78
2023/02/26 00:13:58;;;;;;;3.25;2.17;;;;;;;3.63;96.33;102028.97;4944848;28;20038;-79
2023/02/26 00:16:31;;;;;;;5.68;2.80;;;;;;;3.64;95.87;102023.53;4976504;28;20041;-78
2023/02/26 00:18:59;;;;;;;2.90;1.42;;;;;;;3.69;95.20;102029.41;4992941;28;20126;-79
2023/02/26 00:21:26;;;;;;;8.60;2.70;;;;;;;3.69;95.85;102034.75;4992491;28;20042;-78
2023/02/26 00:23:52;;;;;;;7.47;2.88;;;;;;;3.65;94.95;102032.38;4960583;28;20038;-79
2023/02/26 00:26:18;;;;;;;5.38;2.20;;;;;;;3.69;95.43;102031.22;4976650;28;20125;-79
2023/02/26 00:28:44;;;;;;;4.53;2.40;;;;;;;3.74;94.48;102039.78;4960099;28;20046;-79
2023/02/26 00:31:11;;;;;;;3.33;2.28;;;;;;;3.75;94.14;102036.16;4976459;28;20030;-78
2023/02/26 00:33:37;;;;;;;6.82;3.00;;;;;;;3.79;92.96;102035.00;4961573;28;20066;-78
2023/02/26 00:36:15;;;;;;;6.30;2.90;;;;;;;3.80;92.90;102054.47;4963920;28;20105;-79
2023/02/26 00:38:42;;;;;;;6.13;2.28;;;;;;;3.82;93.00;102048.09;4980148;28;20038;-79
2023/02/26 00:41:08;;;;;;;6.03;3.13;;;;;;;3.78;92.17;102054.56;4963868;28;20038;-79
2023/02/26 00:43:34;;;;;;;9.95;3.30;;;;;;;3.74;92.31;102053.06;4979546;28;20393;-79
2023/02/26 00:46:28;;;;;;;7.22;2.58;;;;;;;3.72;92.64;102053.16;4995754;28;20022;-78
2023/02/26 00:49:02;;;;;;;3.58;1.92;;;;;;;3.70;92.96;102056.88;4963598;28;20030;-78
2023/02/26 00:51:43;;;;;;;8.60;3.42;;;;;;;3.70;93.40;102064.84;4979779;28;20482;-80
2023/02/26 00:54:37;;;;;;;7.97;3.30;;;;;;;3.69;93.08;102065.81;4995929;28;20558;-78
2023/02/26 00:57:04;;;;;;;7.38;2.97;;;;;;;3.63;93.09;102058.25;4978648;28;20587;-77
2023/02/26 00:59:30;;;;;;;8.93;3.63;;;;;;;3.60;93.98;102061.06;4980080;28;20377;-79
2023/02/26 01:01:56;;;;;;;5.85;2.10;;;;;;;3.66;94.00;102063.34;4979643;28;20026;-78
2023/02/26 01:04:22;;;;;;;5.80;2.88;;;;;;;3.70;93.82;102065.69;4963324;28;20038;-78
2023/02/26 01:06:54;;;;;;;5.20;3.25;;;;;;;3.68;93.29;102056.13;4979575;28;20501;-78
2023/02/26 01:09:28;;;;;;;6.10;3.28;;;;;;;3.67;94.39;102062.38;4963197;28;20042;-79
2023/02/26 01:11:56;;;;;;;4.78;2.28;;;;;;;3.68;93.99;102058.81;4994723;28;20037;-78
2023/02/26 01:14:23;;;;;;;5.72;2.95;;;;;;;3.68;94.08;102062.31;4979020;28;20214;-78
2023/02/26 01:17:07;;;;;;;9.38;3.67;;;;;;;3.79;94.04;102058.94;4995349;28;20042;-78
2023/02/26 01:19:49;;;;;;;8.93;2.97;;;;;;;3.78;93.99;102059.88;4994870;28;20035;-78
2023/02/26 01:22:28;;;;;;;4.95;2.67;;;;;;;3.78;94.47;102069.69;4979120;28;20037;-78
2023/02/26 01:25:06;;;;;;;8.55;3.75;;;;;;;3.71;94.37;102074.56;4963046;28;20184;-79
2023/02/26 01:27:32;;;;;;;6.47;1.98;;;;;;;3.49;95.60;102065.31;4995301;28;20030;-78
2023/02/26 01:29:58;;;;;;;5.32;2.53;;;;;;;3.28;96.17;102059.53;4962814;28;20500;-78
2023/02/26 01:32:40;;;;;;;6.43;3.10;;;;;;;3.16;97.13;102081.56;4962733;28;20113;-78
2023/02/26 01:35:17;;;;;;;9.32;3.60;;;;;;;2.85;98.49;102079.91;4979049;28;20030;-79
2023/02/26 01:37:53;;;;;;;9.25;3.28;;;;;;;2.58;100.00;102077.13;4979027;28;20042;-80
2023/02/26 01:40:57;;;;;;;9.80;3.22;;;;;;;2.42;100.00;102082.50;4996253;28;20038;-79
2023/02/26 01:43:30;;;;;;;5.32;3.10;;;;;;;2.33;100.00;102083.91;4956579;28;20439;-79
2023/02/26 01:46:18;;;;;;;6.55;3.47;;;;;;;2.30;100.00;102089.41;4993990;28;20038;-79
2023/02/26 01:48:53;;;;;;;8.73;4.05;;;;;;;2.31;100.00;102093.75;4981931;28;20038;-78
2023/02/26 01:51:54;;;;;;;7.07;4.10;;;;;;;2.31;100.00;102095.56;4994812;28;20030;-80
2023/02/26 01:54:37;;;;;;;6.28;3.30;;;;;;;2.42;100.00;102101.94;4995610;28;20053;-79
2023/02/26 01:57:13;;;;;;;8.60;3.45;;;;;;;2.48;100.00;102091.91;4978306;28;20062;-78
2023/02/26 01:59:45;;;;;;;2.83;1.90;;;;;;;2.61;100.00;102090.22;4978248;28;20044;-78
2023/02/26 02:02:12;;;;;;;6.28;3.00;;;;;;;2.81;100.00;102099.66;4994755;28;20049;-78
2023/02/26 02:04:39;;;;;;;5.07;3.33;;;;;;;2.92;100.00;102097.22;4978129;28;20097;-79
2023/02/26 02:07:05;;;;;;;10.60;4.20;;;;;;;3.08;100.00;102102.44;4977983;28;20037;-79
2023/02/26 02:09:32;;;;;;;5.88;3.35;;;;;;;3.16;100.00;102094.00;4994532;28;20519;-79
2023/02/26 02:12:25;;;;;;;10.02;2.90;;;;;;;3.19;100.00;102093.81;4961962;28;20053;-78
2023/02/26 02:15:06;;;;;;;5.80;2.03;;;;;;;3.18;100.00;102081.47;4978355;28;20030;-78
2023/02/26 02:17:45;;;;;;;3.22;2.03;;;;;;;3.13;98.94;102068.47;4995105;28;20030;-79
2023/02/26 02:20:32;;;;;;;6.07;3.20;;;;;;;3.28;98.99;102088.78;4977793;28;20544;-80
2023/02/26 02:23:04;;;;;;;4.35;3.30;;;;;;;3.26;99.30;102089.81;4994062;28;20033;-80
2023/02/26 02:26:07;;;;;;;2.92;1.85;;;;;;;3.27;98.47;102091.50;4977836;28;20120;-79
2023/02/26 02:29:10;;;;;;;4.82;2.90;;;;;;;3.25;99.03;102085.44;4994860;28;20448;-79
2023/02/26 02:31:53;;;;;;;3.60;2.58;;;;;;;3.24;98.35;102084.59;4993881;28;20483;-78
2023/02/26 02:34:23;;;;;;;5.70;2.65;;;;;;;3.22;98.35;102086.47;4961977;28;20038;-79
2023/02/26 02:37:05;;;;;;;3.78;2.38;;;;;;;3.16;97.97;102089.53;4977426;28;20129;-78
2023/02/26 02:39:41;;;;;;;6.65;3.22;;;;;;;3.00;97.67;102102.06;4977879;28;20042;-79
2023/02/26 02:42:27;;;;;;;7.40;2.72;;;;;;;2.82;98.84;102096.06;4993631;28;20053;-79
2023/02/26 02:44:58;;;;;;;3.30;1.90;;;;;;;2.57;99.70;102100.19;4964101;28;20046;-78
2023/02/26 02:47:24;;;;;;;9.90;3.22;;;;;;;2.28;100.00;102099.25;4977234;28;20045;-79
2023/02/26 02:49:57;;;;;;;6.07;3.35;;;;;;;1.85;100.00;102099.03;4961153;28;20038;-79
2023/02/26 02:52:27;;;;;;;7.47;3.28;;;;;;;1.48;100.00;102101.09;4961360;28;20117;-79
2023/02/26 02:55:21;;;;;;;8.98;4.22;;;;;;;1.10;100.00;102101.34;4977399;28;20057;-79
2023/02/26 02:57:55;;;;;;;2.97;1.55;;;;;;;0.76;100.00;102089.03;4977159;28;20489;-78
2023/02/26 03:00:21;;;;;;;;;;;;;;;0.58;100.00;102089.97;4993755;28;20026;-77
2023/02/26 03:03:25;;;;;;;8.80;3.58;;;;;;;0.28;100.00;102084.44;4961344;28;19916;-79
2023/02/26 03:06:11;;;;;;;5.97;2.53;;;;;;;0.14;100.00;102083.34;4954586;28;20038;-79
2023/02/26 03:08:40;;;;;;;9.52;3.05;;;;;;;0.01;100.00;102076.97;4966087;28;20070;-78
2023/02/26 03:11:07;;;;;;;8.05;2.30;;;;;;;-0.07;100.00;102072.03;4993313;28;20074;-78
2023/02/26 03:13:33;;;;;;;6.65;2.92;;;;;;;-0.09;100.00;102075.69;4993124;28;20030;-79
2023/02/26 03:16:29;;;;;;;6.00;2.55;;;;;;;-0.11;100.00;102077.53;4961187;28;20043;-79
2023/02/26 03:18:57;;;;;;;3.08;2.35;;;;;;;-0.14;100.00;102078.53;4976976;28;20037;-78
2023/02/26 03:21:42;;;;;;;4.30;2.78;;;;;;;-0.26;100.00;102068.59;4977242;28;20067;-79
2023/02/26 03:24:20;;;;;;;5.57;2.95;;;;;;;-0.44;100.00;102075.59;4977219;28;20038;-78
2023/02/26 03:26:57;;;;;;;6.65;3.67;;;;;;;-0.72;100.00;102052.25;4961003;28;20034;-78
2023/02/26 03:29:34;;;;;;;6.97;3.53;;;;;;;-0.68;100.00;102085.53;4961467;28;20080;-79
2023/02/26 03:32:06;;;;;;;5.53;2.53;;;;;;;-0.86;100.00;102063.44;4961001;28;20035;-80
2023/02/26 03:34:46;;;;;;;5.63;3.65;;;;;;;-0.77;100.00;102088.56;4961084;28;20037;-78
2023/02/26 03:37:48;;;;;;;5.93;2.58;;;;;;;-0.86;100.00;102084.56;4961066;28;20554;-79
2023/02/26 03:40:25;;;;;;;4.55;2.58;;;;;;;-0.91;100.00;102087.41;4976664;28;20023;-78
2023/02/26 03:43:00;;;;;;;4.25;2.70;;;;;;;-0.93;100.00;102089.28;4960842;28;20121;-78
2023/02/26 03:45:29;;;;;;;4.90;2.80;;;;;;;-1.01;100.00;102086.09;4961014;28;20035;-79
2023/02/26 03:47:55;;;;;;;4.25;1.67;;;;;;;-1.03;100.00;102090.63;4960334;28;20069;-78
2023/02/26 03:50:30;;;;;;;3.35;1.73;;;;;;;-0.92;100.00;102100.69;4960818;28;20125;-79
2023/02/26 03:52:57;;;;;;;7.78;2.78;;;;;;;-1.05;100.00;102084.56;4960635;28;20034;-79
2023/02/26 03:55:43;;;;;;;3.15;2.05;;;;;;;-0.86;100.00;102099.56;4976644;28;20480;-79
2023/02/26 03:58:09;;;;;;;2.67;1.77;;;;;;;-0.76;100.00;102101.72;4977047;28;20037;-79
2023/02/26 04:00:36;;;;;;;4.90;2.40;;;;;;;-0.77;100.00;102104.41;4976615;28;20381;-80
2023/02/26 04:04:00;;;;;;;5.28;2.55;;;;;;;-0.84;100.00;102103.00;4992970;28;20542;-80
2023/02/26 04:06:26;;;;;;;3.20;2.30;;;;;;;-0.93;100.00;102105.13;4923320;29;20044;-78
2023/02/26 04:08:52;;;;;;;7.07;2.80;;;;;;;-0.94;100.00;102107.84;4975529;28;20047;-80
2023/02/26 04:11:20;;;;;;;4.95;2.42;;;;;;;-0.95;100.00;102106.97;4964284;28;20105;-78
2023/02/26 04:13:46;;;;;;;2.65;1.85;;;;;;;-0.98;100.00;102109.75;4980094;28;20109;-79
2023/02/26 04:16:13;;;;;;;3.80;2.15;;;;;;;-1.04;100.00;102102.09;4980391;28;20495;-80
2023/02/26 04:18:39;;;;;;;5.00;2.22;;;;;;;-1.01;100.00;102112.50;4964095;28;20048;-78
2023/02/26 04:21:06;;;;;;;4.75;2.35;;;;;;;-1.05;100.00;102115.38;4980411;28;20066;-79
2023/02/26 04:23:32;;;;;;;4.47;2.15;;;;;;;-1.17;100.00;102098.28;4979811;28;20041;-78
2023/02/26 04:25:57;;;;;;;2.83;2.05;;;;;;;-1.02;100.00;102113.44;4963863;28;20038;-79
2023/02/26 04:28:23;;;;;;;6.45;2.10;;;;;;;-1.04;100.00;102120.56;4995941;28;20026;-80
2023/02/26 04:30:48;;;;;;;3.97;2.30;;;;;;;-1.04;100.00;102117.06;4964214;28;20044;-78
2023/02/26 04:33:15;;;;;;;7.95;2.90;;;;;;;-1.03;100.00;102118.78;4963479;28;20034;-80
2023/02/26 04:35:41;;;;;;;6.60;2.95;;;;;;;-0.99;100.00;102126.50;4980315;28;20054;-79
2023/02/26 04:38:07;;;;;;;10.77;4.05;;;;;;;-0.99;100.00;102123.88;4995878;28;20030;-79
2023/02/26 04:40:33;;;;;;;11.70;4.15;;;;;;;-1.13;100.00;102113.91;4996776;28;20085;-80
2023/02/26 04:42:58;;;;;;;6.85;3.53;;;;;;;-1.24;100.00;102125.88;4963901;28;20358;-78
2023/02/26 04:45:24;;;;;;;6.85;3.50;;;;;;;-1.28;100.00;102124.28;4963773;28;20161;-80
2023/02/26 04:47:50;;;;;;;8.13;3.17;;;;;;;-1.18;100.00;102131.75;4963908;28;20062;-80
2023/02/26 04:50:16;;;;;;;7.45;2.95;;;;;;;-0.98;100.00;102125.59;4979547;28;20392;-81
2023/02/26 04:52:41;;;;;;;1.55;1.38;;;;;;;-0.69;100.00;102140.16;4963403;28;20030;-79
2023/02/26 04:55:07;;;;;;;5.43;3.22;;;;;;;-0.48;100.00;102132.13;4979538;28;20543;-79
2023/02/26 04:57:33;;;;;;;4.78;2.35;;;;;;;-0.33;100.00;102139.38;4963441;28;20464;-79
2023/02/26 04:59:59;;;;;;;6.30;3.13;;;;;;;-0.22;100.00;102149.44;4963540;28;20037;-78
2023/02/26 05:02:24;;;;;;;3.22;2.00;;;;;;;-0.16;100.00;102141.22;4979634;28;20082;-80
2023/02/26 05:04:50;;;;;;;5.38;3.28;;;;;;;0.18;100.00;102158.09;4963382;28;20461;-79
2023/02/26 05:07:16;;;;;;;11.93;2.75;;;;;;;0.25;100.00;102141.00;4963779;28;20361;-79
2023/02/26 05:09:41;;;;;;;5.60;2.55;;;;;;;0.48;100.00;102154.88;4963191;28;20495;-80
2023/02/26 05:12:07;;;;;;;3.42;1.77;;;;;;;0.62;100.00;102163.00;4978383;28;20035;-79
2023/02/26 05:14:33;;;;;;;5.95;2.85;;;;;;;0.70;100.00;102158.19;4979465;28;20031;-79
2023/02/26 05:16:58;;;;;;;4.15;2.42;;;;;;;0.68;100.00;102167.13;4995402;28;20026;-79
2023/02/26 05:19:24;;;;;;;10.82;3.00;;;;;;;0.58;100.00;102161.44;4962929;28;20033;-81
2023/02/26 05:21:50;;;;;;;4.97;2.38;;;;;;;0.53;100.00;102164.34;4963287;28;20065;-79
2023/02/26 05:24:15;;;;;;;6.72;3.03;;;;;;;0.38;100.00;102155.34;4978854;28;20056;-79
2023/02/26 05:26:41;;;;;;;3.28;2.17;;;;;;;0.39;100.00;102172.09;4963199;28;20030;-79
2023/02/26 05:29:07;;;;;;;9.77;2.65;;;;;;;0.40;100.00;102163.22;4979264;28;20026;-79
2023/02/26 05:31:32;;;;;;;2.33;1.90;;;;;;;0.38;100.00;102173.03;4994265;28;20038;-79
2023/02/26 05:33:58;;;;;;;4.05;2.40;;;;;;;0.32;100.00;102170.66;4979123;28;20464;-80
2023/02/26 05:36:24;;;;;;;5.50;2.40;;;;;;;0.25;100.00;102172.75;4962938;28;20061;-79
2023/02/26 05:38:49;;;;;;;3.20;2.25;;;;;;;0.02;100.00;102152.69;4978922;28;20044;-79
2023/02/26 05:41:15;;;;;;;4.10;2.55;;;;;;;0.03;100.00;102174.72;4996199;28;20030;-80
2023/02/26 05:43:40;;;;;;;5.15;2.45;;;;;;;-0.04;100.00;102174.16;4978422;28;20027;-80
2023/02/26 05:46:06;;;;;;;6.53;3.25;;;;;;;-0.06;100.00;102176.84;4962506;28;20065;-79
2023/02/26 05:48:32;;;;;;;3.60;2.47;;;;;;;-0.12;100.00;102182.44;4962876;28;20050;-80
2023/02/26 05:50:58;;;;;;;10.52;3.80;;;;;;;-0.28;100.00;102177.00;4994484;28;20491;-80
2023/02/26 05:53:25;;;;;;;5.78;1.92;;;;;;;-0.42;100.00;102163.59;4962388;28;20030;-79
2023/02/26 05:55:52;;;;;;;5.28;2.85;;;;;;;-0.32;100.00;102190.44;4962602;28;20034;-78
2023/02/26 05:58:18;;;;;;;10.50;3.47;;;;;;;-0.47;100.00;102182.28;4962515;28;20121;-80
2023/02/26 06:00:44;;;;;;;4.95;2.35;;;;;;;-0.44;100.00;102197.16;4962655;28;20041;-80
2023/02/26 06:03:09;;;;;;;5.72;3.22;;;;;;;-0.54;100.00;102194.06;4994553;28;20407;-79
2023/02/26 06:05:36;;;;;;;6.03;2.58;;;;;;;-0.49;100.00;102201.78;4994556;28;20081;-80
2023/02/26 06:08:04;;;;;;;5.93;4.53;;;;;;;-0.49;100.00;102193.84;4978545;28;20034;-78
2023/02/26 06:10:31;;;;;;;5.20;2.75;;;;;;;-0.29;100.00;102211.44;4978510;28;20081;-80
2023/02/26 06:12:57;;;;;;;4.05;2.10;;;;;;;-0.19;100.00;102201.31;4946213;28;20042;-81
2023/02/26 06:15:23;;;;;;;6.07;2.83;;;;;;;-0.04;100.00;102214.66;4978092;28;20097;-80
2023/02/26 06:17:48;;;;;;;3.67;2.50;;;;;;;0.01;100.00;102213.63;4994237;28;20041;-82
2023/02/26 06:20:14;;;;;;;4.30;2.75;;;;;;;-0.06;100.00;102211.22;4978076;28;20030;-80
2023/02/26 06:22:40;;;;;;;3.95;2.75;;;;;;;0.06;100.00;102224.84;4994824;28;20030;-81
2023/02/26 06:25:06;;;;;;;9.02;3.17;;;;;;;0.13;100.00;102227.13;4962374;28;20034;-80
2023/02/26 06:27:31;;;;;;;3.97;2.75;;;;;;;0.01;100.00;102232.13;4961621;28;20053;-79
2023/02/26 06:29:57;;;;;;;10.73;3.22;;;;;;;-0.13;100.00;102233.63;4961819;28;20030;-80
2023/02/26 06:32:22;;;;;;;4.43;2.67;;;;;;;-0.36;100.00;102236.44;4993404;28;20091;-81
2023/02/26 06:34:48;;;;;;;5.30;2.75;;;;;;;-0.59;100.00;102233.03;4977588;28;20061;-81
2023/02/26 06:37:15;;;;;;;4.97;2.60;;;;;;;-0.80;100.00;102236.59;4961798;28;20145;-81
2023/02/26 06:39:41;;;;;;;9.52;3.17;;;;;;;-1.03;100.00;102235.81;4978150;28;20030;-79
2023/02/26 06:42:07;;;;;;;3.60;1.58;;;;;;;-0.95;100.00;102238.13;4977402;28;20500;-81
2023/02/26 06:44:32;;;;;;;4.03;2.53;;;;;;;-0.62;100.00;102243.72;4977357;28;20504;-81
2023/02/26 06:46:58;;;;;;;3.40;2.20;;;;;;;-0.36;100.00;102224.09;4977382;28;20081;-81
2023/02/26 06:49:24;;;;;;;6.40;2.90;;;;;;;-0.02;100.00;102231.31;4993568;28;20041;-81
2023/02/26 06:51:50;;;;;;;4.05;2.58;;;;;;;0.14;100.00;102241.19;4977588;28;20046;-80
2023/02/26 06:54:15;;;;;;;8.30;3.13;;;;;;;0.15;100.00;102249.03;4977508;28;20037;-80
2023/02/26 06:56:41;;;;;;;2.50;2.10;;;;;;;0.10;100.00;102264.28;4961498;28;20030;-80
2023/02/26 06:59:07;;;;;;;4.40;2.45;;;;;;;-0.06;100.00;102250.03;4993390;28;20041;-80
2023/02/26 07:01:33;;;;;;;6.20;2.00;;;;;;;0.02;100.00;102262.91;4993500;28;20088;-79
2023/02/26 07:03:58;;;;;;;4.60;3.17;;;;;;;0.07;100.00;102269.69;4993553;28;20451;-79
2023/02/26 07:06:24;;;;;;;2.78;1.70;;;;;;;0.24;100.00;102276.88;4994224;28;20026;-81
2023/02/26 07:08:50;;;;;;;4.55;2.10;;;;;;;0.41;100.00;102284.00;4993228;28;20113;-79
2023/02/26 07:11:15;;;;;;;5.07;2.72;;;;;;;0.59;100.00;102283.13;4994472;28;20040;-80
2023/02/26 07:13:41;;;;;;;8.35;3.47;;;;;;;0.84;100.00;102285.44;4993507;28;20046;-81
2023/02/26 07:16:07;;;;;;;4.88;3.13;;;;;;;1.04;100.00;102289.75;4994390;28;20089;-80
2023/02/26 07:18:34;;;;;;;2.60;1.77;;;;;;;1.22;100.00;102295.06;4994182;28;20068;-81
2023/02/26 07:21:00;;;;;;;4.68;2.20;;;;;;;1.29;100.00;102297.31;4961069;28;20041;-79
2023/02/26 07:23:26;;;;;;;8.45;2.60;;;;;;;1.17;100.00;102278.53;4976820;28;20416;-77
2023/02/26 07:25:51;;;;;;;7.40;2.35;;;;;;;1.23;100.00;102287.03;4961093;28;20097;-80
2023/02/26 07:28:17;;;;;;;6.13;3.45;;;;;;;1.25;100.00;102301.06;4992949;28;20034;-82
2023/02/26 07:30:42;;;;;;;4.15;2.63;;;;;;;1.20;100.00;102307.53;4992914;28;20085;-81
2023/02/26 07:33:08;;;;;;;8.27;3.05;;;;;;;1.12;100.00;102299.97;4993082;28;20031;-81
2023/02/26 07:35:35;;;;;;;5.65;3.63;;;;;;;0.97;100.00;102309.53;4960748;28;20512;-80
2023/02/26 07:38:00;;;;;;;5.97;2.67;;;;;;;0.86;100.00;102299.47;4993214;28;20022;-81
2023/02/26 07:40:26;;;;;;;5.63;2.08;;;;;;;0.88;100.00;102296.75;4960883;28;20125;-81
2023/02/26 07:42:52;;;;;;;2.88;1.92;;;;;;;0.95;100.00;102314.03;4977424;28;20085;-81
2023/02/26 07:45:21;;;;;;;7.97;2.75;;;;;;;0.95;100.00;102315.81;4980927;28;20081;-80
2023/02/26 07:47:48;;;;;;;1.35;1.25;;;;;;;0.88;100.00;102302.03;4981144;28;20034;-81
2023/02/26 07:50:14;;;;;;;6.07;2.80;;;;;;;1.01;100.00;102329.63;4980606;28;20125;-79
2023/02/26 07:52:40;;;;;;;5.22;2.90;;;;;;;1.11;100.00;102335.31;4997731;28;20113;-81
2023/02/26 07:55:08;;;;;;;4.05;2.25;;;;;;;1.32;100.00;102344.00;4980651;28;20392;-80
2023/02/26 07:57:34;;;;;;;3.25;2.25;;;;;;;1.51;100.00;102347.44;4996813;28;20477;-81
2023/02/26 07:59:59;;;;;;;9.80;2.63;;;;;;;1.75;100.00;102352.44;4980596;28;20034;-79
2023/02/26 08:02:25;;;;;;;4.35;2.38;;;;;;;1.95;100.00;102348.72;4997583;28;20037;-79
2023/02/26 08:04:52;;;;;;;3.22;1.63;;;;;;;2.02;100.00;102343.97;4980159;28;20037;-81
2023/02/26 08:07:18;;;;;;;4.85;2.38;;;;;;;2.24;100.00;102367.53;4980331;28;20026;-81
2023/02/26 08:09:44;;;;;;;3.55;1.90;;;;;;;2.45;100.00;102369.03;4964524;28;20130;-81
2023/02/26 08:12:09;;;;;;;2.05;1.60;;;;;;;2.68;100.00;102377.56;4996036;28;20113;-80
2023/02/26 08:14:36;;;;;;;2.80;1.30;;;;;;;2.66;100.00;102382.94;4996605;28;20121;-79
2023/02/26 08:17:01;;;;;;;2.00;1.42;;;;;;;2.66;100.00;102393.56;4997154;28;20026;-79
2023/02/26 08:19:34;;;;;;;2.38;1.75;;;;;;;2.63;100.00;102391.94;4964236;28;20084;-79
2023/02/26 08:22:00;;;;;;;2.63;1.48;;;;;;;2.75;100.00;102393.06;4964579;28;20038;-80
2023/02/26 08:24:31;;;;;;;3.78;2.17;;;;;;;2.89;100.00;102392.28;4964760;28;20046;-79
2023/02/26 08:26:56;;;;;;;3.75;2.15;;;;;;;3.05;100.00;102394.94;4995764;28;20394;-79
2023/02/26 08:29:22;;;;;;;2.53;1.67;;;;;;;3.42;100.00;102406.13;4997091;28;20034;-80
2023/02/26 08:31:48;;;;;;;2.67;1.77;;;;;;;3.38;100.00;102397.47;4963628;28;20026;-82
2023/02/26 08:34:14;;;;;;;1.60;1.50;;;;;;;3.24;100.00;102405.38;4963929;28;20038;-82
2023/02/26 08:36:39;;;;;;;2.65;1.48;;;;;;;3.04;100.00;102407.38;4995564;28;20030;-82
2023/02/26 08:39:06;;;;;;;2.47;1.67;;;;;;;2.98;100.00;102401.53;4964002;28;20035;-79
2023/02/26 08:41:32;;;;;;;5.75;1.60;;;;;;;2.86;100.00;102413.72;4979876;28;20125;-79
2023/02/26 08:43:59;;;;;;;4.47;1.90;;;;;;;2.78;100.00;102418.56;4995885;28;20125;-79
2023/02/26 08:46:25;;;;;;;3.20;2.40;;;;;;;2.80;100.00;102416.69;4979959;28;20041;-80
2023/02/26 08:48:52;;;;;;;4.63;1.90;;;;;;;2.91;100.00;102419.66;4963808;28;20034;-79
2023/02/26 08:51:18;;;;;;;1.52;1.25;;;;;;;3.07;100.00;102431.13;4995768;28;20505;-79
2023/02/26 08:53:46;;;;;;;2.10;1.40;;;;;;;3.24;100.00;102426.66;4995635;28;20048;-78
2023/02/26 08:56:12;;;;;;;1.48;1.10;;;;;;;3.45;100.00;102436.06;4980040;28;20050;-79
2023/02/26 08:58:41;;;;;;;1.60;1.30;;;;;;;3.43;99.28;102414.00;4979812;28;20045;-79
2023/02/26 09:01:07;;;;;;;1.83;1.23;;;;;;;3.47;98.36;102425.34;4979876;28;20161;-81
2023/02/26 09:03:33;;;;;;;2.38;1.40;;;;;;;3.46;97.90;102427.13;4979611;28;20034;-79
2023/02/26 09:06:03;;;;;;;1.92;1.33;;;;;;;3.42;97.77;102428.25;4979565;28;20038;-78
2023/02/26 09:08:32;;;;;;;2.95;1.75;;;;;;;3.82;96.53;102430.41;4979629;28;20038;-78
2023/02/26 09:11:00;;;;;;;1.30;1.17;;;;;;;6.49;86.67;102437.13;4979581;28;20041;-79
2023/02/26 09:13:26;;;;;;;3.03;2.17;;;;;;;8.80;73.86;102427.72;4963293;28;20026;-80
2023/02/26 09:15:52;;;;;;;3.67;1.88;;;;;;;10.27;67.09;102424.50;4979732;28;20070;-79
2023/02/26 09:18:18;;;;;;;2.38;1.65;;;;;;;11.11;58.18;102429.63;4963337;28;20404;-81
2023/02/26 09:20:44;;;;;;;5.85;2.08;;;;;;;11.58;56.04;102427.16;4963439;28;20031;-77
2023/02/26 09:23:10;;;;;;;4.20;2.17;;;;;;;12.03;53.76;102437.34;4963219;28;20034;-79
2023/02/26 09:25:38;;;;;;;3.47;2.00;;;;;;;12.34;51.42;102434.47;4963168;28;20036;-78
2023/02/26 09:28:04;;;;;;;5.13;1.83;;;;;;;12.31;51.25;102431.06;4979017;28;20042;-77
2023/02/26 09:30:30;;;;;;;6.93;1.85;;;;;;;12.77;51.52;102431.16;4963003;28;20085;-78
2023/02/26 09:33:04;;;;;;;4.90;2.08;;;;;;;13.25;48.58;102423.78;4962417;28;20061;-78
2023/02/26 09:35:29;;;;;;;;;;;;;;;13.52;46.76;102441.81;4994690;28;20030;-78
2023/02/26 09:37:55;;;;;;;3.30;1.65;;;;;;;13.41;46.50;102437.47;4977535;28;20292;-77
2023/02/26 09:40:59;;;;;;;4.28;1.60;;;;;;;13.36;46.85;102434.41;4978077;28;20069;-79
2023/02/26 09:44:02;;;;;;;2.70;2.20;;;;;;;13.52;47.01;102447.22;4976861;28;20066;-78
2023/02/26 09:47:05;;;;;;;2.60;1.73;;;;;;;13.56;47.11;102451.31;4978135;28;20022;-84
2023/02/26 09:50:00;;;;;;;2.00;1.50;;;;;;;13.94;45.08;102447.44;4994314;28;20041;-80
2023/02/26 09:52:36;;;;;;;3.25;1.58;;;;;;;14.07;45.17;102441.63;4994836;28;20029;-79
2023/02/26 09:55:11;;;;;;;3.65;1.45;;;;;;;14.23;43.45;102432.75;4995011;28;20519;-79
2023/02/26 09:57:41;;;;;;;5.90;2.85;;;;;;;13.92;46.18;102444.06;4978223;28;20049;-80
2023/02/26 10:00:22;;;;;;;2.35;1.60;;;;;;;14.82;43.94;102447.34;4977312;28;20085;-83
2023/02/26 10:03:02;;;;;;;4.80;1.55;;;;;;;15.03;43.56;102455.06;4978379;28;20077;-82
2023/02/26 10:05:42;;;;;;;2.78;1.70;;;;;;;15.54;44.44;102457.72;4977328;28;20112;-84
2023/02/26 10:08:14;;;;;;;3.58;1.55;;;;;;;15.94;39.68;102464.22;4962196;28;20038;-84
2023/02/26 10:10:59;;;;;;;2.67;1.30;;;;;;;15.65;41.54;102460.09;4994064;28;20041;-83
2023/02/26 10:13:36;;;;;;;4.65;1.30;;;;;;;15.79;40.19;102455.91;4994130;28;20034;-84
2023/02/26 10:16:10;;;;;;;5.55;1.90;;;;;;;16.11;38.98;102441.47;4977739;28;20054;-83
2023/02/26 10:18:40;;;;;;;3.60;1.73;;;;;;;16.23;39.98;102458.25;4977757;28;20042;-83
2023/02/26 10:21:11;;;;;;;6.07;1.80;;;;;;;16.69;38.81;102463.91;4977735;28;20033;-84
2023/02/26 10:23:47;;;;;;;4.30;2.35;;;;;;;17.21;39.34;102463.41;4994288;28;20089;-83
2023/02/26 10:26:19;;;;;;;2.25;1.52;;;;;;;17.11;37.75;102458.16;4978417;28;20038;-84
2023/02/26 10:29:00;;;;;;;6.15;4.00;;;;;;;17.43;36.35;102472.59;4993528;28;20026;-85
2023/02/26 10:31:31;;;;;;;5.47;2.13;;;;;;;14.90;39.70;102489.88;4993922;28;20084;-84
2023/02/26 10:34:22;;;;;;;2.95;1.45;;;;;;;14.33;40.61;102474.09;4977445;28;20045;-84
2023/02/26 10:36:53;;;;;;;6.55;1.83;;;;;;;13.83;42.43;102489.06;4994621;28;20030;-84
2023/02/26 10:39:26;;;;;;;25.10;9.32;;;;;;;12.62;44.31;102478.53;4995052;28;20036;-85
2023/02/26 10:41:52;;;;;;;6.53;2.15;;;;;;;14.23;43.55;102489.56;4977772;28;20088;-84
2023/02/26 10:44:27;;;;;;;4.90;1.20;;;;;;;15.70;40.11;102495.72;4994244;28;20034;-83
2023/02/26 10:47:28;;;;;;;5.40;1.40;;;;;;;14.13;41.84;102492.41;4977776;28;20145;-83
2023/02/26 10:50:20;;;;;;;5.38;1.98;;;;;;;13.99;43.00;102495.66;4940956;28;20051;-81
2023/02/26 10:52:46;;;;;;;1.95;1.20;;;;;;;13.83;43.75;102486.38;4973542;28;20042;-80
2023/02/26 10:55:25;;;;;;;4.82;2.05;;;;;;;14.66;41.29;102496.84;4993626;28;20053;-79
2023/02/26 10:58:15;;;;;;;4.88;1.65;;;;;;;14.31;41.06;102481.53;4993758;28;20503;-80
2023/02/26 11:00:44;;;;;;;6.55;1.83;;;;;;;15.97;40.98;102491.84;4977462;28;20031;-80
2023/02/26 11:03:18;;;;;;;8.07;2.25;;;;;;;17.71;38.09;102485.69;4976865;28;20097;-81
2023/02/26 11:05:45;;;;;;;2.88;1.52;;;;;;;16.92;38.47;102488.50;4993636;28;20038;-81
2023/02/26 11:08:23;;;;;;;3.45;1.80;;;;;;;18.62;35.93;102473.81;4976472;28;20097;-81
2023/02/26 11:10:56;;;;;;;3.13;1.42;;;;;;;19.23;34.40;102489.13;4993578;28;20041;-80
2023/02/26 11:13:24;;;;;;;3.35;2.00;;;;;;;17.55;36.00;102481.22;4961085;28;20135;-80
2023/02/26 11:15:52;;;;;;;4.10;1.83;;;;;;;16.25;37.39;102495.06;4976355;28;20034;-80
2023/02/26 11:18:24;;;;;;;4.20;1.90;;;;;;;14.92;38.42;102490.53;4976829;28;20042;-80
2023/02/26 11:20:53;;;;;;;4.45;1.60;;;;;;;12.27;44.96;102488.97;4993423;28;20050;-80
2023/02/26 11:23:21;;;;;;;5.72;2.10;;;;;;;10.90;48.51;102491.63;4944567;28;20361;-85
2023/02/26 11:26:13;;;;;;;6.90;2.28;;;;;;;10.87;48.66;102491.91;4976876;28;20432;-85
2023/02/26 11:28:49;;;;;;;;;;;;;;;10.39;51.00;102503.25;4963946;28;20123;-83
2023/02/26 11:31:20;;;;;;;6.28;3.20;;;;;;;11.18;48.12;102504.34;4976531;28;19917;-86
2023/02/26 11:33:57;;;;;;;9.15;2.92;;;;;;;10.95;47.94;102506.38;4959875;28;20065;-84
2023/02/26 11:36:25;;;;;;;5.97;2.45;;;;;;;10.64;48.37;102492.09;4977138;28;20044;-86
2023/02/26 11:39:24;;;;;;;4.63;2.13;;;;;;;11.08;48.73;102481.06;4976169;28;20202;-88
2023/02/26 11:41:56;;;;;;;6.75;3.00;;;;;;;13.92;42.44;102505.38;4964648;28;20038;-86
2023/02/26 11:44:37;;;;;;;4.97;2.40;;;;;;;12.14;44.17;102511.84;4992082;28;20036;-85